INFORMACIÓN METAR y TAF
METAR FOR ENTC
ADDS - METARS form results

(0140 UTC 29 May 2020)
Data provider http://aviationweather.gov/metar/data/
 
METAR text: ENTC 290120Z 21014KT 9999 -RA SCT016 OVC029 06/03 Q1018 RMK WIND 2600FT 20014KT
Conditions at: ENTC (TROMSO/LANGNES , NO) observed 0120 UTC 29 May 2020
Temperature: 6.0°C (43°F)
Dewpoint: 3.0°C (37°F) [RH = 81%]
Pressure (altimeter): 30.06 inches Hg (1018.0 mb)
Winds: from the SSW (210 degrees) at 16 MPH (14 knots; 7.2 m/s)
Visibility: 6 or more miles (10+ km)
Ceiling: 2900 feet AGL
Clouds: scattered clouds at 1600 feet AGL
overcast cloud deck at 2900 feet AGL
Weather: -RA  (light rain)

METAR text: ENTC 290050Z 21012KT 9999 -DZ OVC016 06/03 Q1019 RMK WIND 2600FT 20014KT
Conditions at: ENTC (TROMSO/LANGNES , NO) observed 0050 UTC 29 May 2020
Temperature: 6.0°C (43°F)
Dewpoint: 3.0°C (37°F) [RH = 81%]
Pressure (altimeter): 30.09 inches Hg (1019.0 mb)
Winds: from the SSW (210 degrees) at 14 MPH (12 knots; 6.2 m/s)
Visibility: 6 or more miles (10+ km)
Ceiling: 1600 feet AGL
Clouds: overcast cloud deck at 1600 feet AGL
Weather: -DZ  (light drizzle)

Forecast for: ENTC (TROMSO/LANGNES , NO)
Text: TAF ENTC 2900/2924 22012KT 9999 -RA FEW012 BKN025
Forecast period: 0000 UTC 29 May 2020 to 0000 UTC 30 May 2020
Forecast type: FROM: standard forecast or significant change
Winds: from the SW (220 degrees) at 14 MPH (12 knots; 6.2 m/s)
Visibility: 6 or more miles 10+ km)
Ceiling: 2500 feet AGL
Clouds: few clouds at 1200 feet AGL
broken clouds at 2500 feet AGL
Weather: -RA  (light rain)
Text: TEMPO 2900/2918 FEW008 BKN014
Forecast period: 0000 to 1800 UTC 29 May 2020
Forecast type: TEMPORARY: The following changes expected for less than half the time period
Visibility: missing
Ceiling: 1400 feet AGL
Clouds: few clouds at 800 feet AGL
broken clouds at 1400 feet AGL
Weather: no significant weather forecast for this period

 MAPA DE AEROPUERTO

 INFORMACIÓN DE PISTA
Pista 01 Longitud 7848 ft Ancho 148 ft
Elevación 25 ft Umbral desplazado 0 ft Rumbo de pista 13
Pista 19 Longitud 7848 ft Ancho 148 ft
Elevación 13 ft Umbral desplazado 1286 ft Rumbo de pista 193

 FRECUANCIAS DEL AEROPUERTO
Tipo APP Nombre APP Frecuencia 123.75 MHZ
Tipo ATIS Nombre ATIS Frecuencia 126.125 MHZ
Tipo TWR Nombre TWR Frecuencia 118.3 MHZ

 RADIO AYUDAS DEL AEROPUERTO
Tipo NDB Nombre Kobbe Frecuencia 283 KHZ
Tipo NDB Nombre Kvalsund Frecuencia 362 KHZ
Tipo NDB Nombre Lanes Frecuencia 268 KHZ
Tipo VOR-DME Nombre Tromso Frecuencia 113800 KHZ



Powered by Virtual Airlines Manager [v2.6.2]